createdAt,value
2019-04-05T00:00:11.410Z,10.65
2019-04-05T00:02:41.012Z,10.18
2019-04-05T00:05:10.593Z,12.88
2019-04-05T00:07:40.163Z,9.53
2019-04-05T00:10:10.386Z,12.53
2019-04-05T00:12:39.974Z,9.28
2019-04-05T00:15:15.715Z,10.60
2019-04-05T00:17:40.874Z,9.45
2019-04-05T00:20:10.876Z,12.47
2019-04-05T00:22:40.456Z,13.40
2019-04-05T00:25:10.187Z,13.48
2019-04-05T00:27:39.761Z,10.25
2019-04-05T00:30:10.968Z,11.05
2019-04-05T00:32:40.576Z,10.53
2019-04-05T00:37:57.761Z,9.95
2019-04-05T00:40:27.399Z,12.80
2019-04-05T00:42:57.008Z,10.85
2019-04-05T00:45:28.362Z,13.45
2019-04-05T00:47:57.983Z,11.03
2019-04-05T00:50:27.734Z,8.95
2019-04-05T00:52:57.333Z,9.20
2019-04-05T00:55:26.919Z,11.78
2019-04-05T00:57:56.521Z,9.58
2019-04-05T01:00:26.259Z,10.23
2019-04-05T01:02:55.932Z,11.45
2019-04-05T01:05:25.512Z,10.10
2019-04-05T01:07:55.210Z,10.65
2019-04-05T01:10:24.796Z,10.60
2019-04-05T01:12:54.743Z,9.98
2019-04-05T01:15:24.340Z,9.53
2019-04-05T01:17:54.183Z,10.75
2019-04-05T01:20:26.625Z,13.38
2019-04-05T01:22:57.773Z,11.85
2019-04-05T01:25:28.309Z,12.00
2019-04-05T01:27:57.903Z,9.98
2019-04-05T01:30:27.498Z,10.75
2019-04-05T01:32:57.173Z,10.43
2019-04-05T01:35:26.751Z,8.85
2019-04-05T01:37:56.884Z,12.45
2019-04-05T01:40:29.589Z,10.55
2019-04-05T01:42:59.259Z,9.28
2019-04-05T01:45:29.333Z,10.95
2019-04-05T01:47:58.911Z,9.70
2019-04-05T01:50:29.855Z,11.08
2019-04-05T01:53:00.392Z,12.43
2019-04-05T01:55:30.081Z,11.78
2019-04-05T01:57:59.667Z,14.87
2019-04-05T02:00:29.341Z,12.23
2019-04-05T02:02:58.951Z,12.93
2019-04-05T02:05:28.627Z,12.23
2019-04-05T02:07:58.352Z,11.28
2019-04-05T02:10:28.083Z,9.75
2019-04-05T02:12:57.818Z,12.43
2019-04-05T02:15:30.365Z,12.78
2019-04-05T02:17:59.983Z,10.72
2019-04-05T02:20:29.750Z,11.35
2019-04-05T02:22:59.580Z,10.13
2019-04-05T02:25:29.267Z,12.05
2019-04-05T02:27:58.915Z,11.40
2019-04-05T02:30:28.686Z,12.75
2019-04-05T02:32:58.480Z,9.70
2019-04-05T02:35:28.197Z,9.83
2019-04-05T02:37:58.028Z,11.15
2019-04-05T02:40:28.590Z,13.00
2019-04-05T02:43:00.693Z,11.63
2019-04-05T02:45:33.389Z,11.75
2019-04-05T02:48:06.346Z,9.85
2019-04-05T02:50:38.938Z,12.93
2019-04-05T02:53:11.225Z,10.18
2019-04-05T02:55:43.087Z,10.90
2019-04-05T02:58:13.873Z,10.75
2019-04-05T03:00:44.777Z,12.82
2019-04-05T03:03:15.972Z,10.40
2019-04-05T03:05:46.558Z,11.60
2019-04-05T03:08:17.427Z,11.48
2019-04-05T03:10:58.550Z,12.30
2019-04-05T03:13:30.221Z,11.75
2019-04-05T03:16:03.414Z,12.10
2019-04-05T03:21:06.189Z,11.57
2019-04-05T03:23:38.821Z,12.45
2019-04-05T03:26:11.477Z,14.33
2019-04-05T03:28:43.895Z,13.08
2019-04-05T03:31:14.194Z,12.30
2019-04-05T03:33:44.393Z,12.95
2019-04-05T03:36:14.222Z,13.03
2019-04-05T03:38:44.543Z,16.00
2019-04-05T03:41:14.856Z,15.75
2019-04-05T03:43:45.678Z,12.15
2019-04-05T03:46:16.293Z,14.70
2019-04-05T03:48:46.708Z,11.90
2019-04-05T03:51:16.797Z,13.53
2019-04-05T03:53:46.542Z,14.95
2019-04-05T03:56:16.675Z,11.97
2019-04-05T03:58:47.028Z,13.35
2019-04-05T04:01:16.653Z,14.68
2019-04-05T04:03:46.289Z,13.40
2019-04-05T04:06:15.957Z,14.30
2019-04-05T04:08:45.645Z,13.28
2019-04-05T04:11:15.573Z,14.25
2019-04-05T04:13:45.483Z,12.53
2019-04-05T04:16:15.431Z,12.47
2019-04-05T04:18:45.456Z,11.50
2019-04-05T04:21:24.103Z,13.88
2019-04-05T04:23:54.429Z,16.90
2019-04-05T04:26:24.138Z,12.10
2019-04-05T04:28:54.261Z,12.58
2019-04-05T04:31:23.825Z,13.43
2019-04-05T04:33:53.869Z,11.88
2019-04-05T04:36:24.036Z,15.25
2019-04-05T04:38:54.560Z,11.22
2019-04-05T04:41:24.292Z,14.28
2019-04-05T04:43:55.181Z,13.65
2019-04-05T04:46:24.825Z,12.33
2019-04-05T04:48:55.250Z,12.03
2019-04-05T04:51:25.357Z,13.78
2019-04-05T04:53:55.069Z,12.95
2019-04-05T04:56:24.916Z,16.87
2019-04-05T04:58:54.717Z,12.85
2019-04-05T05:01:24.513Z,14.87
2019-04-05T05:03:54.928Z,12.45
2019-04-05T05:06:24.596Z,12.80
2019-04-05T05:08:54.136Z,13.18
2019-04-05T05:11:24.429Z,12.35
2019-04-05T05:13:53.998Z,12.53
2019-04-05T05:16:24.193Z,12.93
2019-04-05T05:18:54.225Z,14.05
2019-04-05T05:21:23.922Z,12.95
2019-04-05T05:23:53.630Z,13.40
2019-04-05T05:26:24.385Z,24.65
2019-04-05T05:28:54.071Z,11.57
2019-04-05T05:31:24.275Z,12.82
2019-04-05T05:33:54.000Z,15.08
2019-04-05T05:36:23.632Z,23.18
2019-04-05T05:38:53.360Z,11.22
2019-04-05T05:41:22.915Z,15.20
2019-04-05T05:43:52.590Z,13.05
2019-04-05T05:46:22.257Z,13.10
2019-04-05T05:48:51.846Z,18.67
2019-04-05T05:51:21.973Z,18.62
2019-04-05T05:53:51.545Z,12.98
2019-04-05T05:56:21.105Z,15.08
2019-04-05T05:58:50.674Z,13.43
2019-04-05T06:01:20.255Z,15.80
2019-04-05T06:03:49.849Z,16.62
2019-04-05T06:06:19.405Z,12.70
2019-04-05T06:08:49.066Z,15.75
2019-04-05T06:11:18.641Z,9.85
2019-04-05T06:13:49.873Z,12.65
2019-04-05T06:16:19.645Z,14.70
2019-04-05T06:18:49.182Z,15.00
2019-04-05T06:21:18.871Z,19.85
2019-04-05T06:23:48.536Z,12.75
2019-04-05T06:26:19.153Z,10.43
2019-04-05T06:28:49.801Z,13.70
2019-04-05T06:31:19.599Z,11.00
2019-04-05T06:33:49.437Z,18.07
2019-04-05T06:36:18.958Z,16.37
2019-04-05T06:38:48.928Z,14.47
2019-04-05T06:41:18.418Z,16.42
2019-04-05T06:43:48.044Z,12.43
2019-04-05T06:46:17.610Z,12.33
2019-04-05T06:48:48.853Z,16.25
2019-04-05T06:51:18.416Z,51.92
2019-04-05T06:53:47.993Z,11.65
2019-04-05T06:56:17.630Z,18.20
2019-04-05T06:58:47.532Z,13.15
2019-04-05T07:01:17.178Z,11.60
2019-04-05T07:03:46.756Z,14.30
2019-04-05T07:06:16.398Z,12.63
2019-04-05T07:08:53.704Z,10.28
2019-04-05T07:11:17.157Z,9.13
2019-04-05T07:13:46.661Z,9.20
2019-04-05T07:16:16.300Z,9.60
2019-04-05T07:18:46.008Z,10.20
2019-04-05T07:21:17.274Z,11.53
2019-04-05T07:23:46.837Z,8.73
2019-04-05T07:26:16.410Z,10.25
2019-04-05T07:28:45.975Z,10.03
2019-04-05T07:31:15.549Z,12.25
2019-04-05T07:33:45.121Z,12.40
2019-04-05T07:36:14.722Z,10.20
2019-04-05T07:38:44.254Z,10.82
2019-04-05T07:41:13.790Z,11.28
2019-04-05T07:43:44.495Z,11.85
2019-04-05T07:46:14.050Z,15.55
2019-04-05T07:48:45.034Z,15.98
2019-04-05T07:51:14.926Z,10.18
2019-04-05T07:53:44.483Z,12.25
2019-04-05T07:56:14.062Z,12.50
2019-04-05T07:58:43.573Z,11.85
2019-04-05T08:01:14.063Z,13.78
2019-04-05T08:03:43.638Z,11.53
2019-04-05T08:06:13.320Z,13.58
2019-04-05T08:08:49.208Z,15.28
2019-04-05T08:11:19.674Z,14.10
2019-04-05T08:13:52.734Z,14.53
2019-04-05T08:16:22.409Z,15.30
2019-04-05T08:18:57.618Z,18.67
2019-04-05T08:21:23.282Z,10.80
2019-04-05T08:23:52.871Z,12.55
2019-04-05T08:26:22.526Z,11.10
2019-04-05T08:28:52.264Z,15.90
2019-04-05T08:31:21.987Z,9.10
2019-04-05T08:33:51.572Z,8.65
2019-04-05T08:36:21.139Z,8.20
2019-04-05T08:38:50.705Z,6.95
2019-04-05T08:41:20.274Z,7.05
2019-04-05T08:43:49.768Z,7.62
2019-04-05T08:46:19.333Z,7.37
2019-04-05T08:48:48.982Z,5.40
2019-04-05T08:51:18.567Z,5.03
2019-04-05T08:53:48.135Z,6.62
2019-04-05T08:56:17.690Z,7.08
2019-04-05T08:58:47.265Z,10.13
2019-04-05T09:01:16.921Z,6.53
2019-04-05T09:03:46.488Z,12.65
2019-04-05T09:06:16.061Z,6.42
2019-04-05T09:08:45.614Z,6.78
2019-04-05T09:11:15.290Z,10.18
2019-04-05T09:13:44.855Z,8.60
2019-04-05T09:16:14.442Z,8.68
2019-04-05T09:18:44.356Z,6.72
2019-04-05T09:21:13.938Z,5.65
2019-04-05T09:23:43.527Z,7.65
2019-04-05T09:26:13.140Z,6.60
2019-04-05T09:28:42.710Z,6.03
2019-04-05T09:31:12.265Z,8.68
2019-04-05T09:33:41.871Z,7.50
2019-04-05T09:36:11.497Z,6.75
2019-04-05T09:38:41.112Z,6.03
2019-04-05T09:41:10.690Z,7.83
2019-04-05T09:43:40.270Z,7.05
2019-04-05T09:46:09.885Z,9.45
2019-04-05T09:48:39.476Z,10.20
2019-04-05T09:51:09.037Z,7.15
2019-04-05T09:53:38.623Z,12.47
2019-04-05T09:56:08.114Z,7.97
2019-04-05T09:58:37.684Z,6.67
2019-04-05T10:01:07.237Z,10.48
2019-04-05T10:03:36.820Z,8.08
2019-04-05T10:06:06.452Z,8.15
2019-04-05T10:08:36.017Z,7.90
2019-04-05T10:11:05.571Z,7.25
2019-04-05T10:13:35.148Z,9.78
2019-04-05T10:16:04.838Z,8.13
2019-04-05T10:18:34.335Z,10.28
2019-04-05T10:21:03.901Z,8.53
2019-04-05T10:23:34.016Z,8.23
2019-04-05T10:26:04.270Z,10.03
2019-04-05T10:28:33.928Z,9.05
2019-04-05T10:31:03.484Z,12.43
2019-04-05T10:33:33.134Z,8.83
2019-04-05T10:36:02.922Z,8.90
2019-04-05T10:38:32.421Z,9.63
2019-04-05T10:41:02.238Z,7.00
2019-04-05T10:43:31.797Z,7.42
2019-04-05T10:46:01.356Z,8.75
2019-04-05T10:48:30.933Z,6.97
2019-04-05T10:51:00.697Z,7.92
2019-04-05T10:53:30.254Z,8.43
2019-04-05T10:56:00.526Z,7.42
2019-04-05T10:58:30.148Z,8.38
2019-04-05T11:00:59.661Z,10.50
2019-04-05T11:03:29.246Z,7.20
2019-04-05T11:05:58.819Z,9.00
2019-04-05T11:08:28.409Z,9.05
2019-04-05T11:10:57.969Z,8.30
2019-04-05T11:13:27.554Z,8.33
2019-04-05T11:15:57.037Z,9.60
2019-04-05T11:18:26.948Z,7.35
2019-04-05T11:20:56.474Z,7.50
2019-04-05T11:23:26.047Z,7.47
2019-04-05T11:25:55.649Z,10.65
2019-04-05T11:28:25.238Z,49.13
2019-04-05T11:30:54.813Z,8.03
2019-04-05T11:33:24.956Z,7.20
2019-04-05T11:35:57.645Z,9.00
2019-04-05T11:38:26.739Z,10.45
2019-04-05T11:40:57.658Z,9.48
2019-04-05T11:43:31.287Z,7.60
2019-04-05T11:46:01.763Z,7.00
2019-04-05T11:48:32.386Z,8.60
2019-04-05T11:51:03.226Z,7.20
2019-04-05T11:53:32.800Z,8.18
2019-04-05T11:56:13.936Z,8.18
2019-04-05T11:58:33.543Z,12.60
2019-04-05T12:01:04.774Z,14.28
2019-04-05T12:03:35.108Z,9.83
2019-04-05T12:06:04.677Z,7.40
2019-04-05T12:08:34.242Z,12.30
2019-04-05T12:11:03.935Z,7.72
2019-04-05T12:13:35.987Z,8.63
2019-04-05T12:16:06.102Z,8.13
2019-04-05T12:18:36.393Z,8.13
2019-04-05T12:21:06.326Z,9.83
2019-04-05T12:23:35.903Z,11.35
2019-04-05T12:26:05.546Z,11.22
2019-04-05T12:28:35.108Z,10.55
2019-04-05T12:31:04.761Z,9.98
2019-04-05T12:33:34.337Z,13.30
2019-04-05T12:36:03.925Z,10.58
2019-04-05T12:38:34.404Z,11.83
2019-04-05T12:41:04.964Z,12.10
2019-04-05T12:43:34.600Z,13.75
2019-04-05T12:46:05.371Z,14.87
2019-04-05T12:48:34.915Z,16.85
2019-04-05T12:51:05.595Z,20.68
2019-04-05T12:53:35.447Z,18.70
2019-04-05T12:58:53.633Z,15.80
2019-04-05T13:06:58.840Z,19.75
2019-04-05T13:09:28.450Z,19.92
2019-04-05T13:11:58.170Z,19.27
2019-04-05T13:14:27.712Z,20.37
2019-04-05T13:16:57.330Z,19.05
2019-04-05T13:19:28.545Z,19.52
2019-04-05T13:21:58.221Z,19.65
2019-04-05T13:24:27.814Z,20.32
2019-04-05T13:26:57.495Z,19.92
2019-04-05T13:29:26.986Z,19.20
2019-04-05T13:31:56.622Z,22.85
2019-04-05T13:34:26.587Z,27.27
2019-04-05T13:36:56.346Z,22.80
2019-04-05T13:39:27.554Z,22.13
2019-04-05T13:41:57.127Z,25.10
2019-04-05T13:44:26.705Z,22.35
2019-04-05T13:46:56.321Z,20.85
2019-04-05T13:49:25.889Z,21.52
2019-04-05T13:51:55.478Z,22.67
2019-04-05T13:54:25.133Z,21.80
2019-04-05T13:56:54.713Z,22.65
2019-04-05T13:59:24.398Z,24.02
2019-04-05T14:02:05.526Z,28.42
2019-04-05T14:04:25.223Z,23.98
2019-04-05T14:06:54.813Z,24.15
2019-04-05T14:09:24.393Z,22.75
2019-04-05T14:11:54.061Z,22.55
2019-04-05T14:14:23.637Z,25.62
2019-04-05T14:16:54.124Z,25.25
2019-04-05T14:19:23.901Z,22.32
2019-04-05T14:21:53.747Z,23.32
2019-04-05T14:24:23.976Z,23.22
2019-04-05T14:26:53.672Z,21.87
2019-04-05T14:29:23.329Z,23.25
2019-04-05T14:31:52.886Z,22.00
2019-04-05T14:34:23.681Z,21.35
2019-04-05T14:36:53.657Z,20.68
2019-04-05T14:39:23.199Z,18.52
2019-04-05T14:41:52.837Z,19.77
2019-04-05T14:44:22.355Z,19.25
2019-04-05T14:46:51.940Z,22.75
2019-04-05T14:49:21.540Z,19.37
2019-04-05T14:51:54.877Z,16.60
2019-04-05T14:54:22.322Z,20.10
2019-04-05T14:56:51.885Z,17.42
2019-04-05T14:59:22.626Z,18.67
2019-04-05T15:01:52.191Z,16.95
2019-04-05T15:04:21.775Z,14.98
2019-04-05T15:06:51.495Z,14.53
2019-04-05T15:09:24.885Z,16.32
2019-04-05T15:11:52.283Z,16.30
2019-04-05T15:14:21.898Z,17.70
2019-04-05T15:16:51.446Z,16.25
2019-04-05T15:19:21.025Z,16.48
2019-04-05T15:21:50.614Z,18.73
2019-04-05T15:24:20.193Z,19.77
2019-04-05T15:26:51.589Z,17.12
2019-04-05T15:29:21.052Z,17.73
2019-04-05T15:31:50.625Z,15.70
2019-04-05T15:34:20.374Z,16.10
2019-04-05T15:36:49.965Z,14.98
2019-04-05T15:39:19.494Z,16.80
2019-04-05T15:41:49.129Z,16.60
2019-04-05T15:44:18.725Z,15.20
2019-04-05T15:46:48.293Z,15.15
2019-04-05T15:49:19.430Z,16.02
2019-04-05T15:51:49.109Z,17.30
2019-04-05T15:54:18.703Z,16.80
2019-04-05T15:56:48.277Z,15.08
2019-04-05T15:59:17.872Z,13.50
2019-04-05T16:01:47.482Z,16.75
2019-04-05T16:04:17.059Z,15.25
2019-04-05T16:06:46.690Z,13.88
2019-04-05T16:09:18.069Z,14.03
2019-04-05T16:11:47.705Z,13.00
2019-04-05T16:14:17.365Z,16.70
2019-04-05T16:16:46.930Z,14.20
2019-04-05T16:19:16.606Z,13.48
2019-04-05T16:21:46.092Z,12.88
2019-04-05T16:24:15.662Z,15.50
2019-04-05T16:26:45.267Z,12.37
2019-04-05T16:29:14.858Z,11.55
2019-04-05T16:31:44.432Z,14.03
2019-04-05T16:34:14.013Z,13.22
2019-04-05T16:36:43.572Z,14.20
2019-04-05T16:39:14.721Z,11.68
2019-04-05T16:41:44.293Z,11.90
2019-04-05T16:44:13.962Z,11.00
2019-04-05T16:46:43.552Z,13.20
2019-04-05T16:49:13.132Z,11.78
2019-04-05T16:51:42.732Z,14.38
2019-04-05T16:54:12.304Z,16.42
2019-04-05T16:56:41.901Z,19.48
2019-04-05T16:59:11.417Z,19.50
2019-04-05T17:01:41.037Z,17.00
2019-04-05T17:04:10.622Z,25.65
2019-04-05T17:06:40.201Z,20.92
2019-04-05T17:09:09.845Z,26.80
2019-04-05T17:11:39.414Z,26.00
2019-04-05T17:14:08.905Z,22.58
2019-04-05T17:16:38.455Z,23.70
2019-04-05T17:19:08.033Z,25.62
2019-04-05T17:21:37.689Z,27.87
2019-04-05T17:24:07.262Z,23.18
2019-04-05T17:26:36.942Z,27.98
2019-04-05T17:30:04.464Z,27.02
2019-04-05T17:32:34.278Z,27.45
2019-04-05T17:35:05.028Z,31.68
2019-04-05T17:37:34.766Z,36.33
2019-04-05T17:40:07.762Z,28.85
2019-04-05T17:42:38.312Z,29.07
2019-04-05T17:45:09.035Z,26.70
2019-04-05T17:47:38.613Z,29.55
2019-04-05T17:50:10.630Z,28.55
2019-04-05T17:52:40.205Z,30.15
2019-04-05T17:55:09.917Z,32.00
2019-04-05T17:57:39.812Z,26.30
2019-04-05T18:00:11.553Z,29.55
2019-04-05T18:02:41.073Z,26.70
2019-04-05T18:05:10.646Z,30.85
2019-04-05T18:07:40.238Z,31.15
2019-04-05T18:10:10.163Z,29.30
2019-04-05T18:12:39.848Z,31.70
2019-04-05T18:15:09.649Z,31.73
2019-04-05T18:17:39.293Z,36.73
2019-04-05T18:20:10.023Z,37.85
2019-04-05T18:22:39.709Z,38.15
2019-04-05T18:25:09.425Z,37.95
2019-04-05T18:27:39.010Z,40.38
2019-04-05T18:30:08.839Z,45.10
2019-04-05T18:32:38.455Z,48.58
2019-04-05T18:35:08.544Z,44.30
2019-04-05T18:37:38.121Z,48.68
2019-04-05T18:40:08.385Z,45.67
2019-04-05T18:42:38.103Z,41.83
2019-04-05T18:45:08.048Z,42.27
2019-04-05T18:47:37.766Z,37.73
2019-04-05T18:50:08.042Z,41.70
2019-04-05T18:52:37.685Z,34.15
2019-04-05T18:55:08.237Z,35.70
2019-04-05T18:57:37.802Z,30.92
2019-04-05T19:00:08.624Z,34.98
2019-04-05T19:02:38.170Z,30.20
2019-04-05T19:05:07.889Z,32.03
2019-04-05T19:07:37.490Z,28.23
2019-04-05T19:10:08.217Z,31.33
2019-04-05T19:12:37.858Z,31.50
2019-04-05T19:15:08.677Z,32.53
2019-04-05T19:17:39.883Z,30.87
2019-04-05T19:20:09.804Z,31.17
2019-04-05T19:22:39.562Z,31.00
2019-04-05T19:25:09.314Z,34.18
2019-04-05T19:27:40.741Z,34.55
2019-04-05T19:50:22.182Z,34.45
2019-04-05T19:52:51.932Z,36.75
2019-04-05T19:55:21.518Z,36.68
2019-04-05T19:57:51.110Z,39.98
2019-04-05T20:00:20.890Z,39.55
2019-04-05T20:02:50.477Z,40.88
2019-04-05T20:05:20.046Z,37.60
2019-04-05T20:07:49.622Z,40.88
2019-04-05T20:10:19.296Z,43.17
2019-04-05T20:12:48.955Z,38.88
2019-04-05T20:15:18.612Z,40.83
2019-04-05T20:17:48.189Z,45.28
2019-04-05T20:20:18.577Z,44.95
2019-04-05T20:22:48.259Z,43.78
2019-04-05T20:25:18.243Z,48.55
2019-04-05T20:27:47.854Z,48.10
2019-04-05T20:30:17.578Z,46.63
2019-04-05T20:32:47.392Z,47.05
2019-04-05T20:35:17.333Z,49.18
2019-04-05T20:37:47.098Z,49.18
2019-04-05T20:40:18.192Z,50.80
2019-04-05T20:42:47.939Z,52.35
2019-04-05T20:45:18.306Z,55.03
2019-04-05T20:47:50.023Z,54.80
2019-04-05T20:50:19.918Z,53.63
2019-04-05T20:52:49.536Z,52.78
2019-04-05T20:55:19.364Z,52.70
2019-04-05T20:57:48.944Z,51.90
2019-04-05T21:00:19.111Z,56.60
2019-04-05T21:02:48.798Z,53.55
2019-04-05T21:05:25.254Z,58.63
2019-04-05T21:07:49.558Z,55.55
2019-04-05T21:10:19.211Z,54.53
2019-04-05T21:12:48.795Z,55.12
2019-04-05T21:15:18.389Z,55.08
2019-04-05T21:17:47.988Z,57.93
2019-04-05T21:20:17.682Z,58.65
2019-04-05T21:22:47.304Z,55.40
2019-04-05T21:25:16.938Z,58.13
2019-04-05T21:27:49.437Z,56.53
2019-04-05T21:30:19.310Z,58.70
2019-04-05T21:32:48.964Z,56.30
2019-04-05T21:35:18.874Z,56.30
2019-04-05T21:37:48.523Z,57.23
2019-04-05T21:40:18.157Z,54.05
2019-04-05T21:42:47.754Z,56.35
2019-04-05T21:45:17.465Z,56.70
2019-04-05T21:47:47.064Z,56.40
2019-04-05T21:50:16.835Z,54.50
2019-04-05T21:52:46.505Z,55.28
2019-04-05T21:55:16.129Z,55.50
2019-04-05T21:57:45.735Z,54.98
2019-04-05T22:00:25.399Z,55.98
2019-04-05T22:02:55.014Z,56.05
2019-04-05T22:05:24.679Z,55.35
2019-04-05T22:07:54.464Z,55.60
2019-04-05T22:10:24.069Z,58.70
2019-04-05T22:12:54.078Z,62.27
2019-04-05T22:15:24.124Z,56.00
2019-04-05T22:17:53.828Z,54.53
2019-04-05T22:20:24.488Z,59.60
2019-04-05T22:22:54.658Z,56.80
2019-04-05T22:25:24.780Z,58.58
2019-04-05T22:27:54.437Z,58.13
2019-04-05T22:30:24.031Z,60.78
2019-04-05T22:32:53.657Z,59.65
2019-04-05T22:35:23.397Z,62.45
2019-04-05T22:37:53.027Z,61.15
2019-04-05T22:40:22.640Z,60.88
2019-04-05T22:42:52.315Z,65.42
2019-04-05T22:45:21.960Z,61.00
2019-04-05T22:47:51.803Z,63.73
2019-04-05T22:50:21.516Z,68.02
2019-04-05T22:52:51.243Z,56.13
2019-04-05T22:55:20.869Z,64.22
2019-04-05T22:57:50.749Z,63.08
2019-04-05T23:00:20.493Z,59.85
2019-04-05T23:02:50.147Z,62.55
2019-04-05T23:05:19.761Z,64.07
2019-04-05T23:07:49.422Z,61.75
2019-04-05T23:10:19.602Z,60.88
2019-04-05T23:12:49.269Z,62.35
2019-04-05T23:15:18.904Z,64.47
2019-04-05T23:17:48.567Z,68.83
2019-04-05T23:20:18.267Z,65.52
2019-04-05T23:22:47.966Z,65.40
2019-04-05T23:25:22.071Z,65.45
2019-04-05T23:27:49.078Z,65.35
2019-04-05T23:30:19.611Z,65.40
2019-04-05T23:32:49.207Z,63.05
2019-04-05T23:35:18.920Z,71.45
2019-04-05T23:37:48.645Z,67.62
2019-04-05T23:40:18.325Z,64.25
2019-04-05T23:42:47.944Z,71.40
2019-04-05T23:45:17.712Z,68.30
2019-04-05T23:47:47.377Z,68.22
2019-04-05T23:50:16.979Z,67.53
2019-04-05T23:52:46.624Z,73.50
2019-04-05T23:55:16.253Z,70.87
2019-04-05T23:57:45.892Z,69.07
